Time;durP1;ratioP1;P1;durP2;ratioP2;P2;SDS_P1;SDS_P2;PMS_P1;PMS_P2;Temp;Humidity;BMP_temperature;BMP_pressure;BME280_temperature;BME280_humidity;BME280_pressure;Samples;Min_cycle;Max_cycle;Signal;HPM_P1;HPM_P2
2023/03/18 00:01:33;;;;;;;80.63;38.20;;;;;;;1.76;100.00;95014.59;6214410;23;20221;-84
2023/03/18 00:04:01;;;;;;;84.63;40.20;;;;;;;1.58;100.00;95000.13;6213735;23;20166;-86
2023/03/18 00:06:28;;;;;;;86.87;38.63;;;;;;;1.67;100.00;95009.41;6218679;23;20178;-86
2023/03/18 00:08:56;;;;;;;81.37;36.93;;;;;;;1.65;100.00;95010.53;6215443;23;20194;-85
2023/03/18 00:11:24;;;;;;;76.43;37.57;;;;;;;1.68;100.00;95010.22;6213616;23;20174;-85
2023/03/18 00:13:51;;;;;;;74.20;38.87;;;;;;;1.61;100.00;95016.94;6226477;23;20228;-86
2023/03/18 00:16:20;;;;;;;86.27;41.60;;;;;;;1.61;100.00;95009.25;6215818;23;20180;-80
2023/03/18 00:18:46;;;;;;;100.60;46.97;;;;;;;1.65;100.00;94995.97;6213722;23;20166;-85
2023/03/18 00:21:13;;;;;;;120.23;56.87;;;;;;;1.75;100.00;94992.47;6220850;23;20162;-85
2023/03/18 00:23:40;;;;;;;115.80;55.80;;;;;;;1.77;100.00;94998.25;6213955;23;20638;-85
2023/03/18 00:26:07;;;;;;;117.60;54.90;;;;;;;1.73;100.00;94991.84;6213825;23;20245;-85
2023/03/18 00:28:36;;;;;;;115.07;52.27;;;;;;;1.67;100.00;94990.69;6213706;23;20190;-81
2023/03/18 00:31:07;;;;;;;114.30;52.67;;;;;;;1.61;100.00;94987.00;6213887;23;20169;-85
2023/03/18 00:33:35;;;;;;;115.87;51.83;;;;;;;1.63;100.00;94991.97;6214343;23;20171;-84
2023/03/18 00:36:02;;;;;;;113.50;52.43;;;;;;;1.61;100.00;94981.06;6213322;23;20176;-85
2023/03/18 00:38:29;;;;;;;109.83;51.70;;;;;;;1.51;100.00;94965.03;6214867;23;20166;-87
2023/03/18 00:41:09;;;;;;;111.23;51.57;;;;;;;1.61;100.00;94983.63;6214583;23;20220;-79
2023/03/18 00:43:44;;;;;;;105.13;51.13;;;;;;;1.61;100.00;94973.41;6213223;23;20233;-79
2023/03/18 00:46:12;;;;;;;106.40;51.27;;;;;;;1.59;100.00;94965.03;6212758;23;20549;-79
2023/03/18 00:48:41;;;;;;;110.50;50.60;;;;;;;1.55;100.00;94971.44;6213297;23;20203;-82
2023/03/18 00:51:09;;;;;;;104.37;50.07;;;;;;;1.51;100.00;94965.84;6213723;23;20188;-84
2023/03/18 00:53:37;;;;;;;102.93;49.27;;;;;;;1.28;100.00;94940.94;6213673;23;20524;-83
2023/03/18 00:56:08;;;;;;;110.27;49.80;;;;;;;1.38;100.00;94959.56;6212963;23;20170;-83
2023/03/18 00:58:36;;;;;;;109.90;47.97;;;;;;;1.30;100.00;94939.81;6219453;23;20198;-84
2023/03/18 01:01:04;;;;;;;105.50;47.80;;;;;;;1.28;100.00;94928.13;6213310;23;20169;-84
2023/03/18 01:03:32;;;;;;;106.67;47.47;;;;;;;1.30;100.00;94923.69;6212058;23;20177;-84
2023/03/18 01:06:01;;;;;;;108.00;46.73;;;;;;;1.19;100.00;94901.72;6212937;23;20166;-85
2023/03/18 01:08:29;;;;;;;96.20;42.97;;;;;;;1.33;100.00;94926.72;6213444;23;20256;-85
2023/03/18 01:10:57;;;;;;;121.43;47.40;;;;;;;1.35;100.00;94926.56;6213835;23;20185;-84
2023/03/18 01:13:24;;;;;;;130.73;50.80;;;;;;;1.16;100.00;94914.81;6213881;23;20166;-84
2023/03/18 01:15:53;;;;;;;131.83;51.40;;;;;;;1.21;100.00;94899.81;6219198;23;20245;-84
2023/03/18 01:18:20;;;;;;;143.77;56.30;;;;;;;0.92;100.00;94854.16;6213760;23;20162;-85
2023/03/18 01:20:48;;;;;;;130.57;50.93;;;;;;;1.33;100.00;94928.50;6213567;23;20167;-83
2023/03/18 01:23:19;;;;;;;92.17;41.90;;;;;;;1.14;100.00;94909.88;6213544;23;20232;-85
2023/03/18 01:25:47;;;;;;;98.03;44.80;;;;;;;0.92;100.00;94876.38;6214370;23;20158;-84
2023/03/18 01:31:02;;;;;;;129.10;53.67;;;;;;;0.82;100.00;94870.56;6203969;23;20518;-85
2023/03/18 01:33:29;;;;;;;120.37;51.30;;;;;;;1.25;100.00;94947.16;6214466;23;20197;-84
2023/03/18 01:35:58;;;;;;;112.20;49.60;;;;;;;1.29;100.00;94947.66;6226054;23;20170;-84
2023/03/18 01:38:29;;;;;;;110.03;47.60;;;;;;;1.05;100.00;94892.88;6226832;23;20623;-84
2023/03/18 01:41:08;;;;;;;107.20;45.47;;;;;;;1.31;100.00;94938.06;6220261;23;20158;-83
2023/03/18 01:43:41;;;;;;;103.97;43.33;;;;;;;1.11;100.00;94922.97;6214494;23;20185;-84
2023/03/18 01:46:31;;;;;;;80.27;37.67;;;;;;;1.22;100.00;94939.00;6214502;23;20204;-84
2023/03/18 01:48:58;;;;;;;66.70;32.90;;;;;;;1.20;100.00;94943.47;6213907;23;20253;-84
2023/03/18 01:51:28;;;;;;;80.10;35.80;;;;;;;1.15;100.00;94936.25;6217272;23;20180;-82
2023/03/18 01:53:59;;;;;;;81.20;37.10;;;;;;;1.19;100.00;94942.66;6213102;23;20185;-83
2023/03/18 01:56:26;;;;;;;74.03;33.87;;;;;;;1.11;100.00;94943.44;6213879;23;20570;-83
2023/03/18 01:58:56;;;;;;;72.63;34.53;;;;;;;1.15;100.00;94929.38;6218893;23;20214;-86
2023/03/18 02:01:30;;;;;;;67.43;34.30;;;;;;;1.14;100.00;94909.88;6214788;23;20204;-86
2023/03/18 02:03:58;;;;;;;69.77;33.63;;;;;;;1.12;100.00;94924.59;6212832;23;20898;-86
2023/03/18 02:06:25;;;;;;;68.37;34.17;;;;;;;1.18;100.00;94930.03;6213619;23;20563;-87
2023/03/18 02:08:52;;;;;;;67.23;32.00;;;;;;;1.06;100.00;94919.28;6217549;23;20297;-86
2023/03/18 02:11:22;;;;;;;57.77;26.70;;;;;;;1.17;100.00;94921.56;6212715;23;20184;-86
2023/03/18 02:13:49;;;;;;;50.97;26.67;;;;;;;1.12;100.00;94914.34;6213344;23;20212;-87
2023/03/18 02:16:21;;;;;;;43.10;22.87;;;;;;;1.18;100.00;94919.78;6212504;23;20181;-80
2023/03/18 02:18:51;;;;;;;39.20;21.33;;;;;;;1.13;100.00;94918.50;6212115;23;20160;-79
2023/03/18 02:21:33;;;;;;;39.87;20.27;;;;;;;1.17;100.00;94915.63;6212142;23;20174;-79
2023/03/18 02:24:09;;;;;;;34.73;19.37;;;;;;;1.24;100.00;94925.06;6211853;23;20611;-79
2023/03/18 02:26:48;;;;;;;39.40;20.00;;;;;;;1.22;100.00;94916.75;6211412;23;20577;-80
2023/03/18 02:29:20;;;;;;;46.43;22.67;;;;;;;1.03;100.00;94901.66;6212084;23;20224;-79
2023/03/18 02:31:49;;;;;;;43.70;23.03;;;;;;;1.06;100.00;94916.72;6212409;23;20218;-79
2023/03/18 02:34:17;;;;;;;44.10;22.27;;;;;;;0.98;100.00;94897.00;6212388;23;20185;-86
2023/03/18 02:36:44;;;;;;;41.67;22.67;;;;;;;1.12;100.00;94916.09;6213019;23;20223;-88
2023/03/18 02:39:14;;;;;;;49.00;23.67;;;;;;;1.10;100.00;94918.78;6213347;23;20223;-86
2023/03/18 02:41:41;;;;;;;50.63;24.40;;;;;;;1.00;100.00;94919.88;6214074;23;20193;-85
2023/03/18 02:44:08;;;;;;;51.53;24.30;;;;;;;0.99;100.00;94918.25;6216318;23;20169;-83
2023/03/18 02:46:49;;;;;;;53.40;25.67;;;;;;;1.07;100.00;94911.44;6212418;23;20287;-79
2023/03/18 02:49:18;;;;;;;55.83;26.93;;;;;;;1.11;100.00;94919.59;6212136;23;20672;-79
2023/03/18 02:51:46;;;;;;;44.20;24.37;;;;;;;1.05;100.00;94918.47;6212222;23;20691;-80
2023/03/18 02:54:15;;;;;;;50.67;23.87;;;;;;;1.07;100.00;94920.84;6212950;23;20166;-80
2023/03/18 02:56:43;;;;;;;48.33;26.10;;;;;;;1.00;100.00;94907.91;6212196;23;20227;-81
2023/03/18 02:59:11;;;;;;;50.80;25.73;;;;;;;0.95;100.00;94911.88;6212152;23;20205;-81
2023/03/18 03:01:41;;;;;;;53.00;26.03;;;;;;;0.94;100.00;94916.19;6216282;23;20170;-81
2023/03/18 03:04:09;;;;;;;47.30;25.63;;;;;;;0.88;100.00;94915.97;6212510;23;20173;-81
2023/03/18 03:06:36;;;;;;;49.80;25.73;;;;;;;0.90;100.00;94916.63;6212888;23;20165;-79
2023/03/18 03:09:05;;;;;;;50.90;25.33;;;;;;;0.87;100.00;94912.63;6212912;23;20193;-79
2023/03/18 03:11:33;;;;;;;54.53;27.23;;;;;;;0.86;100.00;94917.91;6213453;23;20174;-79
2023/03/18 03:14:00;;;;;;;47.87;24.70;;;;;;;0.88;100.00;94921.91;6214819;23;20170;-80
2023/03/18 03:16:27;;;;;;;46.47;24.27;;;;;;;0.77;100.00;94903.47;6214499;23;20179;-80
2023/03/18 03:18:55;;;;;;;47.37;23.73;;;;;;;0.78;100.00;94928.88;6214033;23;20169;-80
2023/03/18 03:21:22;;;;;;;45.70;24.30;;;;;;;0.71;100.00;94922.78;6212652;23;20165;-80
2023/03/18 03:23:49;;;;;;;40.77;20.73;;;;;;;0.83;100.00;94923.31;6214326;23;20914;-79
2023/03/18 03:26:18;;;;;;;34.20;19.13;;;;;;;0.88;100.00;94932.13;6213865;23;20526;-79
2023/03/18 03:28:45;;;;;;;34.17;19.73;;;;;;;0.88;100.00;94926.22;6214715;23;20255;-79
2023/03/18 03:31:12;;;;;;;34.80;19.70;;;;;;;0.90;100.00;94937.09;6214520;23;20166;-79
2023/03/18 03:33:40;;;;;;;34.10;19.03;;;;;;;0.79;100.00;94922.00;6213990;23;20173;-79
2023/03/18 03:36:11;;;;;;;40.20;20.20;;;;;;;0.84;100.00;94935.94;6216994;23;20170;-85
2023/03/18 03:38:38;;;;;;;36.07;19.63;;;;;;;0.82;100.00;94939.59;6214476;23;20551;-86
2023/03/18 03:41:05;;;;;;;37.27;20.43;;;;;;;0.75;100.00;94918.16;6214825;23;20177;-86
2023/03/18 03:43:32;;;;;;;37.60;19.77;;;;;;;0.80;100.00;94934.66;6214827;23;20185;-86
2023/03/18 03:45:59;;;;;;;37.50;19.83;;;;;;;0.71;100.00;94927.06;6214734;23;20424;-85
2023/03/18 03:48:27;;;;;;;36.47;19.33;;;;;;;0.80;100.00;94946.63;6213354;23;20284;-84
2023/03/18 03:50:54;;;;;;;39.63;20.63;;;;;;;0.82;100.00;94935.28;6216003;23;20178;-78
2023/03/18 03:53:23;;;;;;;40.87;20.67;;;;;;;0.90;100.00;94942.19;6213838;23;20173;-80
2023/03/18 03:55:50;;;;;;;38.03;20.17;;;;;;;0.85;100.00;94936.75;6213719;23;20169;-79
2023/03/18 03:58:17;;;;;;;42.60;20.77;;;;;;;0.83;100.00;94944.59;6213118;23;20191;-80
2023/03/18 04:00:44;;;;;;;35.17;19.17;;;;;;;0.83;100.00;94936.91;6213414;23;20154;-80
2023/03/18 04:03:12;;;;;;;36.70;21.27;;;;;;;0.79;100.00;94942.47;6213187;23;20205;-80
2023/03/18 04:05:40;;;;;;;38.67;21.23;;;;;;;0.68;100.00;94943.53;6215461;23;20177;-86
2023/03/18 04:08:07;;;;;;;47.30;22.07;;;;;;;0.76;100.00;94955.53;6214441;23;20166;-86
2023/03/18 04:10:36;;;;;;;41.90;22.83;;;;;;;0.70;100.00;94935.69;6213590;23;20177;-86
2023/03/18 04:13:03;;;;;;;43.70;22.17;;;;;;;0.63;100.00;94950.03;6213947;23;20180;-87
2023/03/18 04:15:30;;;;;;;40.63;21.73;;;;;;;0.66;100.00;94949.75;6214109;23;20162;-86
2023/03/18 04:17:57;;;;;;;37.67;20.80;;;;;;;0.62;100.00;94956.91;6214413;23;20180;-86
2023/03/18 04:20:24;;;;;;;43.40;23.70;;;;;;;0.52;100.00;94949.31;6214232;23;20216;-85
2023/03/18 04:22:51;;;;;;;44.97;26.20;;;;;;;0.44;100.00;94956.13;6214464;23;20173;-86
2023/03/18 04:25:18;;;;;;;51.47;26.10;;;;;;;0.42;100.00;94960.59;6218079;23;20252;-85
2023/03/18 04:27:47;;;;;;;50.67;25.57;;;;;;;0.35;100.00;94967.25;6213806;23;20170;-86
2023/03/18 04:30:14;;;;;;;42.23;21.77;;;;;;;0.40;100.00;94968.44;6213629;23;20190;-86
2023/03/18 04:32:41;;;;;;;44.03;21.77;;;;;;;0.42;100.00;94966.53;6213376;23;20202;-86
2023/03/18 04:35:10;;;;;;;45.03;21.27;;;;;;;0.55;100.00;94979.69;6214188;23;20177;-85
2023/03/18 04:37:37;;;;;;;37.50;20.83;;;;;;;0.58;100.00;94968.38;6213718;23;20226;-87
2023/03/18 04:40:05;;;;;;;44.37;22.30;;;;;;;0.55;100.00;94978.91;6216982;23;20161;-87
2023/03/18 04:42:32;;;;;;;48.60;24.83;;;;;;;0.57;100.00;94980.38;6218843;23;20253;-87
2023/03/18 04:45:00;;;;;;;56.97;24.70;;;;;;;0.49;100.00;94982.06;6215306;23;20179;-86
2023/03/18 04:47:28;;;;;;;42.80;22.67;;;;;;;0.42;100.00;94973.38;6215077;23;20370;-85
2023/03/18 04:49:54;;;;;;;41.73;21.47;;;;;;;0.46;100.00;94980.59;6223456;23;20194;-86
2023/03/18 04:52:21;;;;;;;41.63;22.10;;;;;;;0.45;100.00;94998.66;6217056;23;20178;-86
2023/03/18 04:54:48;;;;;;;43.50;22.97;;;;;;;0.37;100.00;94975.59;6214844;23;20180;-86
2023/03/18 04:57:17;;;;;;;53.33;27.10;;;;;;;0.41;100.00;94989.66;6215011;23;20170;-85
2023/03/18 04:59:44;;;;;;;50.20;25.57;;;;;;;0.42;100.00;94994.63;6216099;23;20260;-86
2023/03/18 05:02:13;;;;;;;47.90;26.07;;;;;;;0.45;100.00;94989.22;6215360;23;20166;-85
2023/03/18 05:04:40;;;;;;;46.23;24.60;;;;;;;0.38;100.00;94995.88;6213925;23;20177;-84
2023/03/18 05:07:07;;;;;;;52.00;26.47;;;;;;;0.42;100.00;94993.81;6213740;23;20172;-85
2023/03/18 05:09:34;;;;;;;47.37;25.83;;;;;;;0.47;100.00;94989.06;6212449;23;20533;-85
2023/03/18 05:12:01;;;;;;;43.50;25.63;;;;;;;0.40;100.00;94991.44;6210923;23;20559;-85
2023/03/18 05:14:28;;;;;;;50.93;26.50;;;;;;;0.46;100.00;94990.81;6212913;23;20560;-85
2023/03/18 05:16:54;;;;;;;50.73;27.83;;;;;;;0.43;100.00;94988.56;6213662;23;20653;-85
2023/03/18 05:19:24;;;;;;;49.57;27.47;;;;;;;0.46;100.00;94987.47;6213142;23;20169;-87
2023/03/18 05:21:50;;;;;;;54.30;26.80;;;;;;;0.49;100.00;94989.75;6219608;23;20181;-86
2023/03/18 05:24:17;;;;;;;66.93;30.73;;;;;;;0.55;100.00;94986.56;6213608;23;20166;-85
2023/03/18 05:26:44;;;;;;;87.00;38.00;;;;;;;0.61;100.00;94990.31;6212993;23;20169;-78
2023/03/18 05:29:11;;;;;;;66.17;32.57;;;;;;;0.68;100.00;94986.19;6211851;23;20193;-78
2023/03/18 05:31:38;;;;;;;69.07;32.80;;;;;;;0.70;100.00;94991.94;6212433;23;20597;-78
2023/03/18 05:34:06;;;;;;;67.60;33.20;;;;;;;0.67;100.00;94977.72;6211935;23;20165;-79
2023/03/18 05:36:34;;;;;;;67.23;33.67;;;;;;;0.75;100.00;94987.22;6212697;23;20175;-78
2023/03/18 05:39:01;;;;;;;63.60;33.13;;;;;;;0.83;100.00;94984.69;6214003;23;20166;-79
2023/03/18 05:41:28;;;;;;;57.80;32.33;;;;;;;0.87;100.00;94986.78;6211439;23;20196;-78
2023/03/18 05:43:55;;;;;;;63.33;32.97;;;;;;;0.87;100.00;94993.66;6211446;23;20202;-85
2023/03/18 05:46:21;;;;;;;67.60;35.50;;;;;;;0.92;100.00;94994.03;6211247;23;20253;-86
2023/03/18 05:48:48;;;;;;;83.33;39.70;;;;;;;0.99;100.00;94993.25;6210788;23;20577;-87
2023/03/18 05:51:15;;;;;;;77.20;39.53;;;;;;;0.97;100.00;94995.19;6211617;23;20169;-86
2023/03/18 05:53:44;;;;;;;64.60;33.17;;;;;;;1.03;100.00;95004.00;6211085;23;20502;-78
2023/03/18 05:56:11;;;;;;;48.90;25.23;;;;;;;0.93;100.00;94998.97;6210822;23;20731;-85
2023/03/18 05:58:39;;;;;;;41.97;22.57;;;;;;;1.04;100.00;95006.41;6214654;23;20283;-86
2023/03/18 06:01:07;;;;;;;43.13;21.43;;;;;;;0.99;100.00;94998.38;6213699;23;20396;-89
2023/03/18 06:03:34;;;;;;;52.23;27.37;;;;;;;1.15;100.00;95013.03;6214001;23;20194;-87
2023/03/18 06:06:02;;;;;;;69.47;32.47;;;;;;;1.17;100.00;95020.53;6212109;23;20170;-79
2023/03/18 06:08:29;;;;;;;62.23;30.37;;;;;;;1.11;100.00;95016.84;6209760;23;20188;-79
2023/03/18 06:10:57;;;;;;;59.97;30.03;;;;;;;1.14;100.00;95019.09;6211759;23;20245;-80
2023/03/18 06:13:24;;;;;;;66.17;29.63;;;;;;;1.14;100.00;95011.41;6212631;23;20174;-79
2023/03/18 06:15:57;;;;;;;59.87;29.73;;;;;;;1.11;100.00;95015.09;6211885;23;20173;-78
2023/03/18 06:18:24;;;;;;;55.27;29.20;;;;;;;1.11;100.00;95014.28;6222029;23;20166;-78
2023/03/18 06:20:51;;;;;;;50.07;27.37;;;;;;;1.17;100.00;95023.09;6221820;23;20162;-79
2023/03/18 06:23:18;;;;;;;52.47;27.27;;;;;;;1.20;100.00;95020.25;6225629;23;20286;-80
2023/03/18 06:25:45;;;;;;;51.53;25.97;;;;;;;1.25;100.00;95016.28;6224397;23;20176;-78
2023/03/18 06:28:13;;;;;;;48.57;26.07;;;;;;;1.24;100.00;95014.66;6222355;23;20174;-78
2023/03/18 06:30:40;;;;;;;48.57;25.03;;;;;;;1.20;100.00;95003.13;6217910;23;20200;-78
2023/03/18 06:33:07;;;;;;;46.80;24.60;;;;;;;1.20;100.00;95025.38;6222183;23;20173;-79
2023/03/18 06:35:34;;;;;;;48.43;23.87;;;;;;;1.25;100.00;95011.16;6213968;23;20609;-79
2023/03/18 06:38:01;;;;;;;43.80;24.60;;;;;;;1.22;100.00;94997.84;6212410;23;20180;-79
2023/03/18 06:40:28;;;;;;;47.60;25.47;;;;;;;1.15;100.00;95003.56;6212546;23;20224;-81
2023/03/18 06:42:58;;;;;;;50.47;25.90;;;;;;;0.89;100.00;94978.97;6212985;23;20174;-80
2023/03/18 06:45:27;;;;;;;53.30;28.03;;;;;;;0.94;100.00;94995.47;6213193;23;20173;-80
2023/03/18 06:47:55;;;;;;;59.20;30.53;;;;;;;0.95;100.00;94991.16;6213284;23;20200;-79
2023/03/18 06:50:23;;;;;;;59.13;32.23;;;;;;;1.02;100.00;94992.97;6214397;23;20727;-80
2023/03/18 06:52:50;;;;;;;59.53;33.03;;;;;;;1.04;100.00;94978.25;6213138;23;20244;-79
2023/03/18 06:55:16;;;;;;;65.63;34.43;;;;;;;1.24;100.00;94991.63;6212328;23;20179;-80
2023/03/18 06:57:49;;;;;;;76.50;45.00;;;;;;;1.35;100.00;94995.69;6213508;23;20188;-79
2023/03/18 07:00:17;;;;;;;87.00;47.77;;;;;;;1.47;100.00;94989.34;6213382;23;20208;-79
2023/03/18 07:02:45;;;;;;;73.17;41.17;;;;;;;1.56;100.00;94993.53;6214003;23;20173;-78
2023/03/18 07:05:13;;;;;;;51.57;29.03;;;;;;;1.69;100.00;94986.22;6214592;23;20197;-80
2023/03/18 07:07:44;;;;;;;43.53;25.53;;;;;;;1.78;100.00;94987.84;6213562;23;20258;-79
2023/03/18 07:10:19;;;;;;;48.07;24.53;;;;;;;1.69;100.00;94993.91;6220838;23;20207;-79
2023/03/18 07:12:55;;;;;;;48.23;24.63;;;;;;;1.61;100.00;94970.84;6213989;23;20162;-79
2023/03/18 07:15:25;;;;;;;44.47;24.40;;;;;;;1.77;100.00;94986.22;6213455;23;20162;-78
2023/03/18 07:17:53;;;;;;;43.27;25.13;;;;;;;1.82;100.00;94990.91;6213134;23;20210;-79
2023/03/18 07:20:22;;;;;;;50.73;24.83;;;;;;;1.85;100.00;94990.59;6214165;23;20186;-79
2023/03/18 07:22:53;;;;;;;49.83;25.30;;;;;;;1.91;100.00;94980.50;6213717;23;20182;-78
2023/03/18 07:25:19;;;;;;;51.67;25.80;;;;;;;2.03;100.00;94992.06;6213911;23;20166;-78
2023/03/18 07:27:46;;;;;;;44.57;24.40;;;;;;;2.06;100.00;94991.75;6216982;23;20566;-78
2023/03/18 07:30:17;;;;;;;49.63;25.33;;;;;;;2.12;100.00;94996.25;6213281;23;20845;-79
2023/03/18 07:32:44;;;;;;;51.60;26.10;;;;;;;2.02;100.00;94977.63;6214464;23;20161;-84
2023/03/18 07:35:14;;;;;;;51.37;26.43;;;;;;;2.13;100.00;94990.16;6215860;23;20166;-83
2023/03/18 07:37:43;;;;;;;53.43;27.83;;;;;;;2.11;100.00;94981.00;6215344;23;20569;-81
2023/03/18 07:40:12;;;;;;;53.63;27.73;;;;;;;2.23;100.00;94997.69;6214651;23;20166;-85
2023/03/18 07:42:41;;;;;;;59.83;30.23;;;;;;;2.15;100.00;94995.94;6214275;23;20167;-87
2023/03/18 07:45:12;;;;;;;55.40;28.53;;;;;;;2.21;100.00;95005.56;6215002;23;20166;-85
2023/03/18 07:47:39;;;;;;;51.17;27.63;;;;;;;2.21;100.00;94997.88;6215909;23;20240;-86
2023/03/18 07:50:07;;;;;;;47.50;25.53;;;;;;;2.33;100.00;95000.94;6216255;23;20531;-85
2023/03/18 07:52:36;;;;;;;47.93;24.47;;;;;;;2.42;100.00;94994.84;6212938;23;20177;-82
2023/03/18 07:55:03;;;;;;;42.73;24.00;;;;;;;2.54;100.00;95000.47;6211806;23;20177;-82
2023/03/18 07:57:30;;;;;;;40.80;23.07;;;;;;;2.64;100.00;95003.66;6212354;23;20205;-78
2023/03/18 07:59:57;;;;;;;43.17;23.17;;;;;;;2.74;100.00;95004.31;6212070;23;20205;-78
2023/03/18 08:02:26;;;;;;;43.90;22.90;;;;;;;2.85;100.00;95001.41;6212728;23;20495;-78
2023/03/18 08:04:53;;;;;;;42.30;22.13;;;;;;;2.84;100.00;94995.47;6213267;23;20170;-80
2023/03/18 08:07:21;;;;;;;38.60;21.63;;;;;;;2.82;100.00;95007.66;6213261;23;20162;-80
2023/03/18 08:09:50;;;;;;;39.90;22.77;;;;;;;2.84;100.00;94992.09;6215835;23;20289;-81
2023/03/18 08:12:17;;;;;;;42.87;22.17;;;;;;;2.93;100.00;94993.69;6213820;23;20724;-80
2023/03/18 08:14:44;;;;;;;42.13;22.80;;;;;;;3.06;100.00;94980.38;6212983;23;20217;-79
2023/03/18 08:17:11;;;;;;;37.27;22.10;;;;;;;3.20;100.00;94984.81;6212667;23;20162;-78
2023/03/18 08:19:38;;;;;;;38.43;22.00;;;;;;;3.33;100.00;94988.47;6212824;23;20169;-78
2023/03/18 08:22:05;;;;;;;40.60;22.40;;;;;;;3.45;100.00;94999.19;6212818;23;20181;-78
2023/03/18 08:24:32;;;;;;;41.33;22.57;;;;;;;3.51;99.11;94992.56;6212953;23;20178;-77
2023/03/18 08:27:00;;;;;;;44.50;22.13;;;;;;;3.55;98.55;95006.69;6212009;23;20208;-77
2023/03/18 08:29:27;;;;;;;37.00;21.93;;;;;;;3.52;97.63;94989.81;6214068;23;20172;-85
2023/03/18 08:31:54;;;;;;;43.50;22.60;;;;;;;3.74;97.46;95001.97;6217313;23;20174;-84
2023/03/18 08:34:22;;;;;;;39.33;22.17;;;;;;;3.87;97.32;94999.63;6213059;23;20171;-84
2023/03/18 08:36:49;;;;;;;36.83;22.50;;;;;;;3.98;95.95;94990.75;6214018;23;20175;-87
2023/03/18 08:39:16;;;;;;;39.97;20.87;;;;;;;4.15;94.95;94994.03;6214053;23;20177;-84
2023/03/18 08:41:43;;;;;;;38.17;21.33;;;;;;;4.23;93.58;94994.78;6213788;23;20174;-86
2023/03/18 08:44:11;;;;;;;37.50;18.47;;;;;;;4.39;92.86;94997.25;6215118;23;20512;-84
2023/03/18 08:46:38;;;;;;;33.50;18.83;;;;;;;4.55;91.48;95004.06;6213688;23;20640;-85
2023/03/18 08:49:05;;;;;;;35.73;19.67;;;;;;;4.71;89.78;95001.34;6214019;23;20175;-85
2023/03/18 08:51:32;;;;;;;33.87;20.40;;;;;;;4.84;89.19;95005.91;6217001;23;20197;-86
2023/03/18 08:54:00;;;;;;;41.10;21.87;;;;;;;4.97;88.38;95006.09;6213638;23;20181;-84
2023/03/18 08:56:27;;;;;;;35.67;19.87;;;;;;;5.12;87.70;95007.75;6213748;23;20177;-84
2023/03/18 08:58:53;;;;;;;34.00;18.83;;;;;;;5.30;85.83;95004.84;6214171;23;20716;-84
2023/03/18 09:01:22;;;;;;;36.93;19.53;;;;;;;5.52;84.25;95003.94;6214879;23;20169;-80
2023/03/18 09:03:49;;;;;;;39.00;21.40;;;;;;;5.74;84.35;95003.03;6214186;23;20173;-80
2023/03/18 09:06:17;;;;;;;42.77;22.20;;;;;;;6.00;82.54;95010.31;6215334;23;20174;-83
2023/03/18 09:08:44;;;;;;;39.03;20.80;;;;;;;6.19;80.75;95004.59;6217374;23;20170;-85
2023/03/18 09:11:12;;;;;;;35.87;20.33;;;;;;;6.37;77.26;95011.94;6213203;23;20193;-85
2023/03/18 09:13:39;;;;;;;32.33;18.67;;;;;;;6.54;76.76;95008.13;6211651;23;20616;-82
2023/03/18 09:16:07;;;;;;;26.33;16.23;;;;;;;6.83;74.81;95010.59;6212996;23;20665;-83
2023/03/18 09:18:35;;;;;;;25.33;15.30;;;;;;;7.18;71.82;95013.25;6213240;23;20170;-84
2023/03/18 09:21:03;;;;;;;32.70;15.60;;;;;;;7.40;69.93;95007.81;6213040;23;20167;-84
2023/03/18 09:23:31;;;;;;;24.13;14.77;;;;;;;7.78;66.81;95018.59;6213511;23;20173;-83
2023/03/18 09:25:58;;;;;;;24.00;14.27;;;;;;;8.10;65.17;95024.09;6213878;23;20173;-86
2023/03/18 09:28:25;;;;;;;22.20;13.50;;;;;;;8.35;63.13;95013.06;6215547;23;20166;-80
2023/03/18 09:30:53;;;;;;;25.27;13.13;;;;;;;8.78;68.54;95018.72;6213699;23;20186;-80
2023/03/18 09:33:21;;;;;;;20.57;11.87;;;;;;;9.04;59.11;95023.94;6213677;23;20652;-86
2023/03/18 09:35:49;;;;;;;15.70;10.17;;;;;;;9.28;57.63;95017.34;6212631;23;20265;-85
2023/03/18 09:38:19;;;;;;;18.43;11.47;;;;;;;9.66;55.94;95022.69;6213529;23;20177;-87
2023/03/18 09:40:54;;;;;;;13.23;8.67;;;;;;;9.88;53.35;95011.06;6213353;23;20927;-84
2023/03/18 09:43:36;;;;;;;13.67;8.53;;;;;;;10.13;50.82;95021.56;6213878;23;20154;-87
2023/03/18 09:46:10;;;;;;;14.97;8.33;;;;;;;10.29;52.10;95008.13;6212640;23;20166;-88
2023/03/18 09:49:01;;;;;;;14.37;8.30;;;;;;;10.56;49.79;95022.56;6215180;23;20154;-88
2023/03/18 09:51:42;;;;;;;11.87;8.43;;;;;;;10.53;51.84;95015.22;6213595;23;20185;-88
2023/03/18 09:54:14;;;;;;;13.50;8.40;;;;;;;10.76;51.56;95019.88;6214427;23;20166;-88
2023/03/18 09:56:43;;;;;;;14.67;8.40;;;;;;;10.77;50.92;94987.66;6219847;23;20166;-90
2023/03/18 09:59:20;;;;;;;14.17;8.20;;;;;;;10.96;51.55;94967.72;6222361;23;20678;-88
2023/03/18 10:01:53;;;;;;;9.97;7.10;;;;;;;11.40;48.32;94977.94;6225703;23;20159;-89
2023/03/18 10:04:23;;;;;;;11.60;6.83;;;;;;;11.91;47.64;95003.69;6216847;23;20515;-91
2023/03/18 10:06:57;;;;;;;9.50;6.03;;;;;;;12.13;45.62;95017.88;6214576;23;20151;-85
2023/03/18 10:09:28;;;;;;;9.63;5.30;;;;;;;11.82;45.25;95023.22;6219089;23;20507;-85
2023/03/18 10:12:04;;;;;;;7.10;5.23;;;;;;;11.86;45.84;95008.78;6218762;23;20182;-90
2023/03/18 10:14:38;;;;;;;6.77;5.17;;;;;;;12.21;44.00;95022.78;6213744;23;20170;-87
2023/03/18 10:17:19;;;;;;;8.37;5.30;;;;;;;12.38;43.68;95020.41;6213311;23;20500;-87
2023/03/18 10:19:50;;;;;;;10.20;5.40;;;;;;;12.32;43.39;95011.63;6213256;23;20217;-88
2023/03/18 10:22:48;;;;;;;5.80;4.73;;;;;;;12.19;42.51;95013.59;6213877;23;20158;-86
2023/03/18 10:25:25;;;;;;;8.53;4.83;;;;;;;11.98;42.99;95022.63;6213136;23;20491;-87
2023/03/18 10:28:08;;;;;;;7.10;4.97;;;;;;;11.79;42.24;95015.84;6216231;23;20158;-86
2023/03/18 10:30:48;;;;;;;7.63;4.83;;;;;;;11.54;42.94;95023.69;6214909;23;20209;-87
2023/03/18 10:33:23;;;;;;;9.20;5.27;;;;;;;11.18;43.65;95016.56;6213315;23;20610;-86
2023/03/18 10:35:54;;;;;;;7.30;4.93;;;;;;;11.51;43.62;95018.91;6211667;23;20161;-87
2023/03/18 10:38:27;;;;;;;7.00;5.20;;;;;;;12.04;42.80;95013.97;6212997;23;20547;-88
2023/03/18 10:40:55;;;;;;;10.37;4.93;;;;;;;11.72;42.00;95015.91;6213163;23;20553;-86
2023/03/18 10:43:26;;;;;;;6.10;4.50;;;;;;;12.12;41.16;95013.66;6213009;23;20236;-86
2023/03/18 10:46:00;;;;;;;6.73;4.50;;;;;;;12.50;39.74;95016.81;6212829;23;20173;-86
2023/03/18 10:48:31;;;;;;;5.03;4.10;;;;;;;12.82;37.41;95013.97;6213893;23;20162;-84
2023/03/18 10:51:09;;;;;;;5.93;4.50;;;;;;;12.93;38.34;95007.97;6212832;23;20194;-89
2023/03/18 10:53:42;;;;;;;10.13;4.73;;;;;;;13.27;38.40;94994.25;6213251;23;20160;-88
2023/03/18 10:56:11;;;;;;;5.20;4.20;;;;;;;13.75;36.03;95008.88;6213515;23;20291;-89
2023/03/18 10:58:40;;;;;;;9.13;5.07;;;;;;;14.37;35.74;94996.88;6214198;23;20190;-87
2023/03/18 11:01:08;;;;;;;7.43;4.50;;;;;;;14.94;35.24;95011.53;6215288;23;20225;-91
2023/03/18 11:03:42;;;;;;;7.77;5.00;;;;;;;15.08;35.00;95007.59;6214226;23;20245;-90
2023/03/18 11:06:18;;;;;;;7.40;4.60;;;;;;;14.60;37.11;95010.66;6218594;23;20169;-88
2023/03/18 11:08:47;;;;;;;8.80;5.20;;;;;;;13.61;39.62;95010.94;6213090;23;20224;-84
2023/03/18 11:11:25;;;;;;;8.47;5.17;;;;;;;12.32;40.99;95001.19;6212073;23;20198;-86
2023/03/18 11:13:54;;;;;;;9.00;5.10;;;;;;;11.72;42.41;95000.28;6212445;23;20640;-83
2023/03/18 11:16:30;;;;;;;6.47;4.63;;;;;;;11.40;42.56;94999.56;6212389;23;20225;-81
2023/03/18 11:18:58;;;;;;;6.20;4.63;;;;;;;10.59;43.58;94993.56;6212353;23;20166;-81
2023/03/18 11:21:28;;;;;;;9.50;4.43;;;;;;;10.24;45.18;94992.38;6212795;23;20170;-82
2023/03/18 11:24:19;;;;;;;6.60;4.90;;;;;;;10.04;44.65;95000.19;6212638;23;20170;-81
2023/03/18 11:26:53;;;;;;;7.20;4.40;;;;;;;9.86;45.34;94992.28;6215348;23;20985;-81
2023/03/18 11:29:24;;;;;;;7.43;4.63;;;;;;;9.96;45.15;94971.06;6212381;23;20189;-81
2023/03/18 11:32:00;;;;;;;11.17;5.13;;;;;;;10.79;44.49;94977.88;6210766;23;20195;-82